createdAt,value
2022-12-09T00:00:08.254Z,30.83
2022-12-09T00:02:36.308Z,32.92
2022-12-09T00:05:04.200Z,34.38
2022-12-09T00:07:31.894Z,33.25
2022-12-09T00:09:59.373Z,35.17
2022-12-09T00:12:26.605Z,35.92
2022-12-09T00:14:53.843Z,35.45
2022-12-09T00:17:21.159Z,36.13
2022-12-09T00:19:48.440Z,35.95
2022-12-09T00:22:15.702Z,36.10
2022-12-09T00:24:43.195Z,36.55
2022-12-09T00:27:10.543Z,34.45
2022-12-09T00:29:37.815Z,35.05
2022-12-09T00:32:05.237Z,35.58
2022-12-09T00:34:32.619Z,34.97
2022-12-09T00:37:00.088Z,35.70
2022-12-09T00:39:27.466Z,36.20
2022-12-09T00:41:54.711Z,34.10
2022-12-09T00:44:22.016Z,34.90
2022-12-09T00:46:49.745Z,35.85
2022-12-09T00:49:17.187Z,36.53
2022-12-09T00:51:45.118Z,34.22
2022-12-09T00:54:13.007Z,34.90
2022-12-09T00:56:40.391Z,34.25
2022-12-09T00:59:07.907Z,33.67
2022-12-09T01:01:35.220Z,35.53
2022-12-09T01:04:08.225Z,33.38
2022-12-09T01:06:36.205Z,32.08
2022-12-09T01:09:04.024Z,35.33
2022-12-09T01:11:31.507Z,35.20
2022-12-09T01:14:01.528Z,35.35
2022-12-09T01:16:30.954Z,34.65
2022-12-09T01:18:59.571Z,36.35
2022-12-09T01:21:28.018Z,33.47
2022-12-09T01:23:55.330Z,36.83
2022-12-09T01:26:22.700Z,34.40
2022-12-09T01:28:52.688Z,32.35
2022-12-09T01:31:23.108Z,34.15
2022-12-09T01:33:50.644Z,34.67
2022-12-09T01:36:23.874Z,32.83
2022-12-09T01:38:51.351Z,30.75
2022-12-09T01:41:18.849Z,32.88
2022-12-09T01:43:46.102Z,33.63
2022-12-09T01:46:15.034Z,31.48
2022-12-09T01:48:44.113Z,32.50
2022-12-09T01:51:18.396Z,32.95
2022-12-09T01:53:47.700Z,31.30
2022-12-09T01:56:30.385Z,31.63
2022-12-09T01:59:01.144Z,32.22
2022-12-09T02:01:28.474Z,33.33
2022-12-09T02:03:56.179Z,29.80
2022-12-09T02:06:23.871Z,30.42
2022-12-09T02:08:51.511Z,32.15
2022-12-09T02:11:34.442Z,32.95
2022-12-09T02:14:02.457Z,32.92
2022-12-09T02:16:35.819Z,31.10
2022-12-09T02:19:48.819Z,30.23
2022-12-09T02:22:19.206Z,33.15
2022-12-09T02:24:52.334Z,35.00
2022-12-09T02:28:06.871Z,33.95
2022-12-09T02:30:39.568Z,32.92
2022-12-09T02:33:07.207Z,32.72
2022-12-09T02:35:54.960Z,33.55
2022-12-09T02:38:28.263Z,32.25
2022-12-09T02:41:05.896Z,30.60
2022-12-09T02:43:43.688Z,31.98
2022-12-09T02:46:16.172Z,30.73
2022-12-09T02:48:49.346Z,31.15
2022-12-09T02:51:18.138Z,31.02
2022-12-09T02:53:46.715Z,31.88
2022-12-09T02:56:15.082Z,32.22
2022-12-09T02:58:42.899Z,31.75
2022-12-09T03:01:29.463Z,32.00
2022-12-09T03:03:56.812Z,33.88
2022-12-09T03:06:27.781Z,31.98
2022-12-09T03:08:58.210Z,31.73
2022-12-09T03:11:25.546Z,30.95
2022-12-09T03:14:17.140Z,30.33
2022-12-09T03:16:52.531Z,29.83
2022-12-09T03:19:41.247Z,29.88
2022-12-09T03:22:14.274Z,28.58
2022-12-09T03:25:03.687Z,27.92
2022-12-09T03:27:38.453Z,30.25
2022-12-09T03:30:07.166Z,31.00
2022-12-09T03:32:35.833Z,31.30
2022-12-09T03:35:10.023Z,32.15
2022-12-09T03:37:38.734Z,31.63
2022-12-09T03:40:13.168Z,32.80
2022-12-09T03:42:50.507Z,29.95
2022-12-09T03:45:17.791Z,32.25
2022-12-09T03:47:45.294Z,33.22
2022-12-09T03:50:14.455Z,32.13
2022-12-09T03:52:56.726Z,31.55
2022-12-09T03:55:29.232Z,31.00
2022-12-09T03:57:58.082Z,29.30
2022-12-09T04:00:25.809Z,31.13
2022-12-09T04:02:53.510Z,30.88
2022-12-09T04:05:20.959Z,32.35
2022-12-09T04:07:48.638Z,30.75
2022-12-09T04:10:16.146Z,29.10
2022-12-09T04:12:43.371Z,30.45
2022-12-09T04:15:11.024Z,29.05
2022-12-09T04:17:38.575Z,29.75
2022-12-09T04:20:06.992Z,29.73
2022-12-09T04:22:34.939Z,29.40
2022-12-09T04:25:02.342Z,29.02
2022-12-09T04:27:29.623Z,30.27
2022-12-09T04:29:57.531Z,29.67
2022-12-09T04:32:24.808Z,28.92
2022-12-09T04:34:52.422Z,31.05
2022-12-09T04:37:19.674Z,28.58
2022-12-09T04:39:46.870Z,28.20
2022-12-09T04:42:14.482Z,28.25
2022-12-09T04:44:41.899Z,28.48
2022-12-09T04:47:09.312Z,25.48
2022-12-09T04:49:37.010Z,27.77
2022-12-09T04:52:04.684Z,25.75
2022-12-09T04:54:33.160Z,26.05
2022-12-09T04:57:00.407Z,25.27
2022-12-09T04:59:30.174Z,22.65
2022-12-09T05:01:57.932Z,22.17
2022-12-09T05:04:25.594Z,20.85
2022-12-09T05:06:53.484Z,19.45
2022-12-09T05:09:21.119Z,19.15
2022-12-09T05:11:48.629Z,21.00
2022-12-09T05:14:16.447Z,22.95
2022-12-09T05:16:44.075Z,23.73
2022-12-09T05:19:11.650Z,24.23
2022-12-09T05:21:39.494Z,22.75
2022-12-09T05:24:06.981Z,21.52
2022-12-09T05:26:34.510Z,21.50
2022-12-09T05:29:01.848Z,20.90
2022-12-09T05:31:29.256Z,20.67
2022-12-09T05:33:57.093Z,21.52
2022-12-09T05:36:25.482Z,18.83
2022-12-09T05:38:53.565Z,19.23
2022-12-09T05:41:22.185Z,19.17
2022-12-09T05:43:50.001Z,18.42
2022-12-09T05:46:17.543Z,19.10
2022-12-09T05:48:45.441Z,18.17
2022-12-09T05:51:16.680Z,18.55
2022-12-09T05:53:44.477Z,18.10
2022-12-09T05:56:16.188Z,17.73
2022-12-09T05:58:43.802Z,18.75
2022-12-09T06:01:11.391Z,17.67
2022-12-09T06:03:39.007Z,17.35
2022-12-09T06:06:12.458Z,17.00
2022-12-09T06:08:40.978Z,17.97
2022-12-09T06:11:14.589Z,15.70
2022-12-09T06:13:42.409Z,16.40
2022-12-09T06:16:10.014Z,15.43
2022-12-09T06:18:37.743Z,15.38
2022-12-09T06:21:06.905Z,14.73
2022-12-09T06:23:36.013Z,15.85
2022-12-09T06:26:03.666Z,14.88
2022-12-09T06:28:31.328Z,13.85
2022-12-09T06:30:58.757Z,13.57
2022-12-09T06:33:52.961Z,13.43
2022-12-09T06:36:13.795Z,13.70
2022-12-09T06:38:41.227Z,13.75
2022-12-09T06:41:09.881Z,14.55
2022-12-09T06:43:37.677Z,14.43
2022-12-09T06:46:14.764Z,13.50
2022-12-09T06:48:42.803Z,13.57
2022-12-09T06:51:10.544Z,14.32
2022-12-09T06:53:38.000Z,12.60
2022-12-09T06:56:11.401Z,14.10
2022-12-09T06:58:40.603Z,12.68
2022-12-09T07:01:13.776Z,13.02
2022-12-09T07:03:43.073Z,12.77
2022-12-09T07:06:34.749Z,12.68
2022-12-09T07:09:07.490Z,11.57
2022-12-09T07:11:35.132Z,12.30
2022-12-09T07:14:02.963Z,12.13
2022-12-09T07:16:30.555Z,11.40
2022-12-09T07:18:58.632Z,12.10
2022-12-09T07:21:26.945Z,11.95
2022-12-09T07:23:54.700Z,11.93
2022-12-09T07:26:22.194Z,11.60
2022-12-09T07:28:50.531Z,10.45
2022-12-09T07:31:23.736Z,10.93
2022-12-09T07:33:52.486Z,10.95
2022-12-09T07:36:21.513Z,11.20
2022-12-09T07:38:49.771Z,10.38
2022-12-09T07:41:20.310Z,11.02
2022-12-09T07:43:48.164Z,10.43
2022-12-09T07:46:16.533Z,10.57
2022-12-09T07:48:44.397Z,10.07
2022-12-09T07:51:12.064Z,11.10
2022-12-09T07:53:39.911Z,10.80
2022-12-09T07:56:09.312Z,11.43
2022-12-09T07:58:37.075Z,10.77
2022-12-09T08:01:11.439Z,11.30
2022-12-09T08:03:42.978Z,11.27
2022-12-09T08:06:18.717Z,11.48
2022-12-09T08:08:46.791Z,10.95
2022-12-09T08:11:23.528Z,11.02
2022-12-09T08:13:51.741Z,10.57
2022-12-09T08:16:20.606Z,11.43
2022-12-09T08:18:49.047Z,11.05
2022-12-09T08:21:18.888Z,11.07
2022-12-09T08:23:46.441Z,10.93
2022-12-09T08:26:14.580Z,11.57
2022-12-09T08:28:42.116Z,11.95
2022-12-09T08:31:11.461Z,11.82
2022-12-09T08:33:39.180Z,11.38
2022-12-09T08:36:10.942Z,12.40
2022-12-09T08:38:38.335Z,11.25
2022-12-09T08:41:12.774Z,11.65
2022-12-09T08:43:40.760Z,11.43
2022-12-09T08:46:08.652Z,12.35
2022-12-09T08:48:38.074Z,13.05
2022-12-09T08:51:05.991Z,13.20
2022-12-09T08:53:33.549Z,13.07
2022-12-09T08:56:08.476Z,12.98
2022-12-09T08:58:36.215Z,12.48
2022-12-09T09:01:04.139Z,13.00
2022-12-09T09:03:32.246Z,12.55
2022-12-09T09:06:10.504Z,15.13
2022-12-09T09:08:39.236Z,15.43
2022-12-09T09:11:11.620Z,13.50
2022-12-09T09:13:39.999Z,15.52
2022-12-09T09:16:16.198Z,16.95
2022-12-09T09:18:44.593Z,15.75
2022-12-09T09:21:13.283Z,16.85
2022-12-09T09:23:40.875Z,17.00
2022-12-09T09:26:17.906Z,16.58
2022-12-09T09:28:45.850Z,17.10
2022-12-09T09:31:15.214Z,17.42
2022-12-09T09:33:42.898Z,17.35
2022-12-09T09:36:16.297Z,17.50
2022-12-09T09:38:43.973Z,16.95
2022-12-09T09:41:38.596Z,18.77
2022-12-09T09:44:25.880Z,15.98
2022-12-09T09:46:54.930Z,18.70
2022-12-09T09:49:39.933Z,18.02
2022-12-09T09:52:27.818Z,18.75
2022-12-09T09:54:55.687Z,17.80
2022-12-09T09:57:26.325Z,18.98
2022-12-09T10:00:08.843Z,18.30
2022-12-09T10:03:01.495Z,19.20
2022-12-09T10:05:44.539Z,19.83
2022-12-09T10:08:37.180Z,18.88
2022-12-09T10:11:12.987Z,18.75
2022-12-09T10:13:55.002Z,18.48
2022-12-09T10:16:53.339Z,19.15
2022-12-09T10:19:30.986Z,18.30
2022-12-09T10:21:59.145Z,17.30
2022-12-09T10:24:30.889Z,20.52
2022-12-09T10:27:12.648Z,18.35
2022-12-09T10:29:40.261Z,19.02
2022-12-09T10:32:24.076Z,18.40
2022-12-09T10:34:52.322Z,14.10
2022-12-09T10:37:27.701Z,18.08
2022-12-09T10:40:06.196Z,19.17
2022-12-09T10:43:09.615Z,18.38
2022-12-09T10:48:38.758Z,19.25
2022-12-09T10:51:11.385Z,20.15
2022-12-09T10:53:43.976Z,19.92
2022-12-09T10:56:11.267Z,20.92
2022-12-09T10:58:38.676Z,20.80
2022-12-09T11:01:11.426Z,21.25
2022-12-09T11:03:39.622Z,20.63
2022-12-09T11:06:23.700Z,20.85
2022-12-09T11:08:58.094Z,20.25
2022-12-09T11:11:45.687Z,20.38
2022-12-09T11:14:26.442Z,21.40
2022-12-09T11:16:55.536Z,20.20
2022-12-09T11:19:36.280Z,19.73
2022-12-09T11:22:32.707Z,19.65
2022-12-09T11:25:17.495Z,21.30
2022-12-09T11:28:24.738Z,19.80
2022-12-09T11:31:29.105Z,19.65
2022-12-09T11:34:00.153Z,19.35
2022-12-09T11:36:31.056Z,20.80
2022-12-09T11:39:09.346Z,20.08
2022-12-09T11:41:55.202Z,20.98
2022-12-09T11:44:29.478Z,21.90
2022-12-09T11:47:04.581Z,21.88
2022-12-09T11:49:34.793Z,21.52
2022-12-09T11:52:28.910Z,21.13
2022-12-09T11:55:14.638Z,22.85
2022-12-09T11:58:05.313Z,23.63
2022-12-09T12:01:03.407Z,22.30
2022-12-09T12:03:36.822Z,22.10
2022-12-09T12:06:13.476Z,21.90
2022-12-09T12:08:43.639Z,22.52
2022-12-09T12:11:20.891Z,21.88
2022-12-09T12:14:12.314Z,22.95
2022-12-09T12:16:55.441Z,20.58
2022-12-09T12:19:22.710Z,23.23
2022-12-09T12:22:34.334Z,22.77
2022-12-09T12:25:34.880Z,22.67
2022-12-09T12:28:48.509Z,20.88
2022-12-09T12:31:33.649Z,23.65
2022-12-09T12:34:26.226Z,22.70
2022-12-09T12:37:11.719Z,22.67
2022-12-09T12:39:41.999Z,24.17
2022-12-09T12:43:18.948Z,23.42
2022-12-09T12:46:17.268Z,21.98
2022-12-09T12:48:44.569Z,21.77
2022-12-09T12:51:24.632Z,22.58
2022-12-09T12:53:57.435Z,22.38
2022-12-09T12:56:52.332Z,21.90
2022-12-09T12:59:34.266Z,22.02
2022-12-09T13:02:21.479Z,22.02
2022-12-09T13:04:54.299Z,22.63
2022-12-09T13:07:53.144Z,23.73
2022-12-09T13:10:32.458Z,22.58
2022-12-09T13:13:01.859Z,22.42
2022-12-09T13:15:42.230Z,21.63
2022-12-09T13:18:36.390Z,22.90
2022-12-09T13:21:04.966Z,23.15
2022-12-09T13:23:38.222Z,24.40
2022-12-09T13:26:24.950Z,23.77
2022-12-09T13:29:00.990Z,24.00
2022-12-09T13:31:33.298Z,24.58
2022-12-09T13:34:21.367Z,24.98
2022-12-09T13:36:48.860Z,24.80
2022-12-09T13:39:39.384Z,25.52
2022-12-09T13:42:47.028Z,26.52
2022-12-09T13:45:15.562Z,26.83
2022-12-09T13:47:42.773Z,25.30
2022-12-09T13:50:51.768Z,25.50
2022-12-09T13:53:21.584Z,25.13
2022-12-09T13:56:16.571Z,25.38
2022-12-09T13:59:08.310Z,26.75
2022-12-09T14:01:53.586Z,26.38
2022-12-09T14:04:29.350Z,29.40
2022-12-09T14:07:24.779Z,27.17
2022-12-09T14:12:26.571Z,27.60
2022-12-09T14:14:58.271Z,30.17
2022-12-09T14:17:25.457Z,33.20
2022-12-09T14:20:16.473Z,31.75
2022-12-09T14:23:08.259Z,31.25
2022-12-09T14:25:35.481Z,30.98
2022-12-09T14:28:24.220Z,32.15
2022-12-09T14:30:55.555Z,29.70
2022-12-09T14:33:28.946Z,30.77
2022-12-09T14:36:15.429Z,31.25
2022-12-09T14:39:23.029Z,29.35
2022-12-09T14:42:00.924Z,27.85
2022-12-09T14:44:53.291Z,29.63
2022-12-09T14:47:28.781Z,28.52
2022-12-09T14:49:56.542Z,28.15
2022-12-09T14:52:27.252Z,27.90
2022-12-09T14:54:54.519Z,26.70
2022-12-09T14:57:25.008Z,27.45
2022-12-09T14:59:55.443Z,27.65
2022-12-09T15:02:24.725Z,25.23
2022-12-09T15:04:54.889Z,26.10
2022-12-09T15:07:26.595Z,25.65
2022-12-09T15:10:16.802Z,24.35
2022-12-09T15:12:49.486Z,26.65
2022-12-09T15:15:29.314Z,25.10
2022-12-09T15:17:57.622Z,24.98
2022-12-09T15:20:27.738Z,26.80
2022-12-09T15:23:19.560Z,26.67
2022-12-09T15:25:50.150Z,32.10
2022-12-09T15:28:25.901Z,26.98
2022-12-09T15:30:58.834Z,25.92
2022-12-09T15:33:26.837Z,24.95
2022-12-09T15:35:59.662Z,26.17
2022-12-09T15:38:28.357Z,26.95
2022-12-09T15:41:15.063Z,28.38
2022-12-09T15:43:42.451Z,27.83
2022-12-09T15:46:10.123Z,28.60
2022-12-09T15:48:39.858Z,27.15
2022-12-09T15:51:09.870Z,26.83
2022-12-09T15:53:40.975Z,28.92
2022-12-09T15:56:11.910Z,28.70
2022-12-09T15:58:42.506Z,29.33
2022-12-09T16:01:09.745Z,28.48
2022-12-09T16:03:37.173Z,27.23
2022-12-09T16:06:06.589Z,27.67
2022-12-09T16:08:42.881Z,30.70
2022-12-09T16:11:10.566Z,34.10
2022-12-09T16:13:59.727Z,30.52
2022-12-09T16:16:47.854Z,29.77
2022-12-09T16:19:27.210Z,29.73
2022-12-09T16:21:56.539Z,32.35
2022-12-09T16:24:23.821Z,30.88
2022-12-09T16:26:51.603Z,29.20
2022-12-09T16:29:37.273Z,30.33
2022-12-09T16:32:22.606Z,31.02
2022-12-09T16:34:55.789Z,31.73
2022-12-09T16:37:31.918Z,31.25
2022-12-09T16:39:59.639Z,31.52
2022-12-09T16:42:28.119Z,31.98
2022-12-09T16:45:30.355Z,32.15
2022-12-09T16:47:58.326Z,31.67
2022-12-09T16:50:31.258Z,33.28
2022-12-09T16:52:59.167Z,31.50
2022-12-09T16:55:27.827Z,32.80
2022-12-09T16:57:55.636Z,33.67
2022-12-09T17:00:22.971Z,31.60
2022-12-09T17:03:02.686Z,32.85
2022-12-09T17:05:29.903Z,32.67
2022-12-09T17:07:57.155Z,33.10
2022-12-09T17:10:24.393Z,32.00
2022-12-09T17:12:51.643Z,32.55
2022-12-09T17:15:20.120Z,33.65
2022-12-09T17:17:48.803Z,34.45
2022-12-09T17:20:16.408Z,33.38
2022-12-09T17:22:43.658Z,34.42
2022-12-09T17:25:10.968Z,34.78
2022-12-09T17:27:38.188Z,34.25
2022-12-09T17:30:05.957Z,34.53
2022-12-09T17:32:33.196Z,33.17
2022-12-09T17:35:00.404Z,34.20
2022-12-09T17:37:27.606Z,34.53
2022-12-09T17:40:01.716Z,33.65
2022-12-09T17:42:30.821Z,32.50
2022-12-09T17:44:58.087Z,33.05
2022-12-09T17:47:25.350Z,33.92
2022-12-09T17:49:52.710Z,35.28
2022-12-09T17:52:19.942Z,34.50
2022-12-09T17:54:47.656Z,34.67
2022-12-09T17:57:14.899Z,33.05
2022-12-09T17:59:42.131Z,35.78
2022-12-09T18:02:10.856Z,35.40
2022-12-09T18:04:38.067Z,35.67
2022-12-09T18:07:05.291Z,35.15
2022-12-09T18:09:32.568Z,34.17
2022-12-09T18:11:59.906Z,34.70
2022-12-09T18:14:27.207Z,33.50
2022-12-09T18:16:54.531Z,34.38
2022-12-09T18:19:24.803Z,33.67
2022-12-09T18:21:54.304Z,35.60
2022-12-09T18:24:21.651Z,34.28
2022-12-09T18:26:48.903Z,36.20
2022-12-09T18:29:16.155Z,32.78
2022-12-09T18:31:45.624Z,34.38
2022-12-09T18:34:13.028Z,34.72
2022-12-09T18:36:40.320Z,37.45
2022-12-09T18:39:07.628Z,38.97
2022-12-09T18:41:34.965Z,37.88
2022-12-09T18:44:04.174Z,38.03
2022-12-09T18:46:34.479Z,36.65
2022-12-09T18:49:07.276Z,35.50
2022-12-09T18:51:34.669Z,35.88
2022-12-09T18:54:02.253Z,34.28
2022-12-09T18:56:29.961Z,35.35
2022-12-09T18:59:06.405Z,32.85
2022-12-09T19:01:38.836Z,33.80
2022-12-09T19:04:06.784Z,34.88
2022-12-09T19:06:35.399Z,33.88
2022-12-09T19:09:07.757Z,33.35
2022-12-09T19:11:37.029Z,33.83
2022-12-09T19:14:05.283Z,34.50
2022-12-09T19:16:32.648Z,34.00
2022-12-09T19:19:05.521Z,34.75
2022-12-09T19:21:36.335Z,35.25
2022-12-09T19:24:03.727Z,36.92
2022-12-09T19:26:33.418Z,35.72
2022-12-09T19:29:02.628Z,37.88
2022-12-09T19:31:31.262Z,35.17
2022-12-09T19:34:00.539Z,35.08
2022-12-09T19:36:28.914Z,34.78
2022-12-09T19:38:57.705Z,36.22
2022-12-09T19:41:25.039Z,35.65
2022-12-09T19:43:59.152Z,34.60
2022-12-09T19:46:26.772Z,33.97
2022-12-09T19:48:54.279Z,33.17
2022-12-09T19:51:21.818Z,34.92
2022-12-09T19:53:49.054Z,33.70
2022-12-09T19:56:17.975Z,35.45
2022-12-09T19:58:45.643Z,34.35
2022-12-09T20:01:15.250Z,34.45
2022-12-09T20:03:43.500Z,35.63
2022-12-09T20:06:12.121Z,34.42
2022-12-09T20:08:39.598Z,36.33
2022-12-09T20:11:11.149Z,35.13
2022-12-09T20:13:38.376Z,36.33
2022-12-09T20:16:07.046Z,35.28
2022-12-09T20:18:34.567Z,34.60
2022-12-09T20:21:03.154Z,36.00
2022-12-09T20:23:30.437Z,36.42
2022-12-09T20:26:04.804Z,35.90
2022-12-09T20:28:32.437Z,36.17
2022-12-09T20:31:07.461Z,35.03
2022-12-09T20:33:34.942Z,35.13
2022-12-09T20:36:19.299Z,35.42
2022-12-09T20:38:51.103Z,36.60
2022-12-09T20:41:18.629Z,35.92
2022-12-09T20:43:46.733Z,34.55
2022-12-09T20:46:18.752Z,33.40
2022-12-09T20:48:46.657Z,34.55
2022-12-09T20:51:13.910Z,34.40
2022-12-09T20:53:41.932Z,37.00
2022-12-09T20:56:09.389Z,33.08
2022-12-09T20:58:37.195Z,33.83
2022-12-09T21:01:09.336Z,34.10
2022-12-09T21:03:36.708Z,31.67
2022-12-09T21:06:04.276Z,34.42
2022-12-09T21:08:32.173Z,32.20
2022-12-09T21:11:07.409Z,34.38
2022-12-09T21:13:42.535Z,34.72
2022-12-09T21:16:12.350Z,34.53
2022-12-09T21:18:39.723Z,36.40
2022-12-09T21:21:06.929Z,34.55
2022-12-09T21:23:37.524Z,34.97
2022-12-09T21:26:09.922Z,34.97
2022-12-09T21:28:37.425Z,33.65
2022-12-09T21:31:18.522Z,33.25
2022-12-09T21:33:45.995Z,34.45
2022-12-09T21:36:15.722Z,34.42
2022-12-09T21:38:43.123Z,32.97
2022-12-09T21:41:12.079Z,31.27
2022-12-09T21:43:39.433Z,33.60
2022-12-09T21:46:11.746Z,33.92
2022-12-09T21:48:39.266Z,33.95
2022-12-09T21:51:06.617Z,34.30
2022-12-09T21:53:34.023Z,35.20
2022-12-09T21:56:06.003Z,35.00
2022-12-09T21:58:33.461Z,35.08
2022-12-09T22:01:02.870Z,34.55
2022-12-09T22:03:30.312Z,34.58
2022-12-09T22:05:59.511Z,43.15
2022-12-09T22:08:27.022Z,51.33
2022-12-09T22:10:54.259Z,43.92
2022-12-09T22:13:22.649Z,39.38
2022-12-09T22:15:49.935Z,40.75
2022-12-09T22:18:17.356Z,38.60
2022-12-09T22:21:16.005Z,37.55
2022-12-09T22:23:31.807Z,37.17
2022-12-09T22:25:59.035Z,35.75
2022-12-09T22:28:26.348Z,35.90
2022-12-09T22:30:53.637Z,37.03
2022-12-09T22:33:20.891Z,37.92
2022-12-09T22:35:48.110Z,37.53
2022-12-09T22:38:15.357Z,37.58
2022-12-09T22:40:42.606Z,37.83
2022-12-09T22:43:09.819Z,36.55
2022-12-09T22:45:37.006Z,37.58
2022-12-09T22:48:04.314Z,36.08
2022-12-09T22:50:31.513Z,37.33
2022-12-09T22:52:58.793Z,37.92
2022-12-09T22:55:26.005Z,37.45
2022-12-09T22:57:53.211Z,37.25
2022-12-09T23:00:20.418Z,38.35
2022-12-09T23:02:47.833Z,36.65
2022-12-09T23:05:15.191Z,38.60
2022-12-09T23:07:42.419Z,39.20
2022-12-09T23:10:10.780Z,38.35
2022-12-09T23:12:38.081Z,36.45
2022-12-09T23:15:05.799Z,38.58
2022-12-09T23:17:33.923Z,37.75
2022-12-09T23:20:01.138Z,37.53
2022-12-09T23:22:28.326Z,43.67
2022-12-09T23:24:55.550Z,38.50
2022-12-09T23:27:22.762Z,38.22
2022-12-09T23:29:49.992Z,36.85
2022-12-09T23:32:17.222Z,39.17
2022-12-09T23:34:44.439Z,40.10
2022-12-09T23:37:11.720Z,39.58
2022-12-09T23:39:39.002Z,36.72
2022-12-09T23:42:06.247Z,38.40
2022-12-09T23:44:33.452Z,37.60
2022-12-09T23:47:00.685Z,37.00
2022-12-09T23:49:28.081Z,38.28
2022-12-09T23:51:55.295Z,37.70
2022-12-09T23:54:22.491Z,37.03
2022-12-09T23:56:49.992Z,36.97
2022-12-09T23:59:19.892Z,36.05
